sensor_id;sensor_type;location;lat;lon;timestamp;P1;durP1;ratioP1;P2;durP2;ratioP2
61642;SDS011;47551;52.506;4.678;2023-07-13T00:00:15;14.83;;;5.53;;
61642;SDS011;47551;52.506;4.678;2023-07-13T00:00:36;16.10;;;7.22;;
61642;SDS011;47551;52.506;4.678;2023-07-13T00:00:56;16.67;;;7.17;;
61642;SDS011;47551;52.506;4.678;2023-07-13T00:01:17;15.50;;;6.53;;
61642;SDS011;47551;52.506;4.678;2023-07-13T00:01:37;16.87;;;6.97;;
61642;SDS011;47551;52.506;4.678;2023-07-13T00:01:58;14.90;;;6.80;;
61642;SDS011;47551;52.506;4.678;2023-07-13T00:02:18;14.20;;;6.47;;
61642;SDS011;47551;52.506;4.678;2023-07-13T00:02:39;14.63;;;5.90;;
61642;SDS011;47551;52.506;4.678;2023-07-13T00:02:59;16.35;;;5.95;;
61642;SDS011;47551;52.506;4.678;2023-07-13T00:03:19;15.07;;;5.80;;
61642;SDS011;47551;52.506;4.678;2023-07-13T00:03:39;14.87;;;5.97;;
61642;SDS011;47551;52.506;4.678;2023-07-13T00:04:01;15.80;;;6.63;;
61642;SDS011;47551;52.506;4.678;2023-07-13T00:04:22;17.60;;;6.78;;
61642;SDS011;47551;52.506;4.678;2023-07-13T00:04:43;16.55;;;6.35;;
61642;SDS011;47551;52.506;4.678;2023-07-13T00:05:03;18.87;;;7.20;;
61642;SDS011;47551;52.506;4.678;2023-07-13T00:05:26;16.30;;;6.83;;
61642;SDS011;47551;52.506;4.678;2023-07-13T00:05:52;17.83;;;6.68;;
61642;SDS011;47551;52.506;4.678;2023-07-13T00:06:16;18.27;;;6.10;;
61642;SDS011;47551;52.506;4.678;2023-07-13T00:06:40;14.27;;;6.30;;
61642;SDS011;47551;52.506;4.678;2023-07-13T00:07:01;16.10;;;6.55;;
61642;SDS011;47551;52.506;4.678;2023-07-13T00:07:22;15.40;;;6.47;;
61642;SDS011;47551;52.506;4.678;2023-07-13T00:07:43;18.55;;;6.97;;
61642;SDS011;47551;52.506;4.678;2023-07-13T00:08:06;17.83;;;6.85;;
61642;SDS011;47551;52.506;4.678;2023-07-13T00:08:26;16.00;;;6.50;;
61642;SDS011;47551;52.506;4.678;2023-07-13T00:08:49;17.42;;;6.28;;
61642;SDS011;47551;52.506;4.678;2023-07-13T00:09:13;18.10;;;6.23;;
61642;SDS011;47551;52.506;4.678;2023-07-13T00:09:36;15.75;;;6.55;;
61642;SDS011;47551;52.506;4.678;2023-07-13T00:09:56;16.70;;;6.40;;
61642;SDS011;47551;52.506;4.678;2023-07-13T00:10:17;16.03;;;6.07;;
61642;SDS011;47551;52.506;4.678;2023-07-13T00:10:41;18.00;;;6.20;;
61642;SDS011;47551;52.506;4.678;2023-07-13T00:11:02;18.00;;;6.15;;
61642;SDS011;47551;52.506;4.678;2023-07-13T00:11:22;13.65;;;5.10;;
61642;SDS011;47551;52.506;4.678;2023-07-13T00:11:43;18.63;;;5.27;;
61642;SDS011;47551;52.506;4.678;2023-07-13T00:12:03;18.35;;;5.85;;
61642;SDS011;47551;52.506;4.678;2023-07-13T00:12:44;14.30;;;4.82;;
61642;SDS011;47551;52.506;4.678;2023-07-13T00:13:04;15.60;;;5.23;;
61642;SDS011;47551;52.506;4.678;2023-07-13T00:13:25;13.80;;;5.00;;
61642;SDS011;47551;52.506;4.678;2023-07-13T00:13:45;14.48;;;5.18;;
61642;SDS011;47551;52.506;4.678;2023-07-13T00:14:05;16.03;;;5.57;;
61642;SDS011;47551;52.506;4.678;2023-07-13T00:14:26;17.10;;;6.13;;
61642;SDS011;47551;52.506;4.678;2023-07-13T00:14:47;14.13;;;5.15;;
61642;SDS011;47551;52.506;4.678;2023-07-13T00:15:15;15.80;;;5.40;;
61642;SDS011;47551;52.506;4.678;2023-07-13T00:15:36;15.27;;;5.10;;
61642;SDS011;47551;52.506;4.678;2023-07-13T00:15:57;15.87;;;5.40;;
61642;SDS011;47551;52.506;4.678;2023-07-13T00:16:17;16.70;;;5.72;;
61642;SDS011;47551;52.506;4.678;2023-07-13T00:16:39;14.95;;;5.05;;
61642;SDS011;47551;52.506;4.678;2023-07-13T00:17:01;15.10;;;5.20;;
61642;SDS011;47551;52.506;4.678;2023-07-13T00:17:21;16.87;;;5.20;;
61642;SDS011;47551;52.506;4.678;2023-07-13T00:17:42;15.70;;;5.00;;
61642;SDS011;47551;52.506;4.678;2023-07-13T00:18:04;15.05;;;4.80;;
61642;SDS011;47551;52.506;4.678;2023-07-13T00:18:24;18.20;;;5.50;;
61642;SDS011;47551;52.506;4.678;2023-07-13T00:18:50;14.40;;;5.47;;
61642;SDS011;47551;52.506;4.678;2023-07-13T00:19:13;15.13;;;5.18;;
61642;SDS011;47551;52.506;4.678;2023-07-13T00:19:33;16.23;;;4.78;;
61642;SDS011;47551;52.506;4.678;2023-07-13T00:19:56;14.77;;;4.90;;
61642;SDS011;47551;52.506;4.678;2023-07-13T00:20:16;14.18;;;5.10;;
61642;SDS011;47551;52.506;4.678;2023-07-13T00:20:37;16.93;;;5.10;;
61642;SDS011;47551;52.506;4.678;2023-07-13T00:21:01;16.05;;;5.53;;
61642;SDS011;47551;52.506;4.678;2023-07-13T00:21:25;14.48;;;4.93;;
61642;SDS011;47551;52.506;4.678;2023-07-13T00:21:45;15.48;;;5.13;;
61642;SDS011;47551;52.506;4.678;2023-07-13T00:22:05;16.37;;;4.77;;
61642;SDS011;47551;52.506;4.678;2023-07-13T00:22:26;17.90;;;4.87;;
61642;SDS011;47551;52.506;4.678;2023-07-13T00:22:46;13.65;;;4.60;;
61642;SDS011;47551;52.506;4.678;2023-07-13T00:23:07;12.68;;;4.30;;
61642;SDS011;47551;52.506;4.678;2023-07-13T00:23:27;13.93;;;4.20;;
61642;SDS011;47551;52.506;4.678;2023-07-13T00:23:48;14.80;;;4.20;;
61642;SDS011;47551;52.506;4.678;2023-07-13T00:24:11;14.95;;;3.97;;
61642;SDS011;47551;52.506;4.678;2023-07-13T00:24:41;14.25;;;4.30;;
61642;SDS011;47551;52.506;4.678;2023-07-13T00:25:01;14.32;;;4.68;;
61642;SDS011;47551;52.506;4.678;2023-07-13T00:25:22;12.77;;;4.32;;
61642;SDS011;47551;52.506;4.678;2023-07-13T00:25:44;15.82;;;4.43;;
61642;SDS011;47551;52.506;4.678;2023-07-13T00:26:05;14.17;;;4.60;;
61642;SDS011;47551;52.506;4.678;2023-07-13T00:26:26;14.10;;;4.28;;
61642;SDS011;47551;52.506;4.678;2023-07-13T00:26:46;16.50;;;4.00;;
61642;SDS011;47551;52.506;4.678;2023-07-13T00:27:08;15.27;;;3.90;;
61642;SDS011;47551;52.506;4.678;2023-07-13T00:27:28;12.95;;;3.63;;
61642;SDS011;47551;52.506;4.678;2023-07-13T00:27:51;14.07;;;3.72;;
61642;SDS011;47551;52.506;4.678;2023-07-13T00:28:11;13.98;;;4.05;;
61642;SDS011;47551;52.506;4.678;2023-07-13T00:28:32;13.23;;;3.90;;
61642;SDS011;47551;52.506;4.678;2023-07-13T00:28:52;13.68;;;3.70;;
61642;SDS011;47551;52.506;4.678;2023-07-13T00:29:13;14.13;;;3.87;;
61642;SDS011;47551;52.506;4.678;2023-07-13T00:29:33;12.82;;;3.97;;
61642;SDS011;47551;52.506;4.678;2023-07-13T00:29:53;14.13;;;3.70;;
61642;SDS011;47551;52.506;4.678;2023-07-13T00:30:14;12.40;;;3.70;;
61642;SDS011;47551;52.506;4.678;2023-07-13T00:30:34;12.93;;;3.90;;
61642;SDS011;47551;52.506;4.678;2023-07-13T00:30:55;14.10;;;3.77;;
61642;SDS011;47551;52.506;4.678;2023-07-13T00:31:15;14.25;;;3.72;;
61642;SDS011;47551;52.506;4.678;2023-07-13T00:31:35;13.27;;;3.60;;
61642;SDS011;47551;52.506;4.678;2023-07-13T00:31:59;10.57;;;3.42;;
61642;SDS011;47551;52.506;4.678;2023-07-13T00:32:19;11.00;;;3.80;;
61642;SDS011;47551;52.506;4.678;2023-07-13T00:32:40;11.00;;;3.60;;
61642;SDS011;47551;52.506;4.678;2023-07-13T00:33:00;8.82;;;3.58;;
61642;SDS011;47551;52.506;4.678;2023-07-13T00:33:21;10.52;;;3.65;;
61642;SDS011;47551;52.506;4.678;2023-07-13T00:33:44;10.15;;;3.35;;
61642;SDS011;47551;52.506;4.678;2023-07-13T00:34:04;9.27;;;2.83;;
61642;SDS011;47551;52.506;4.678;2023-07-13T00:34:27;11.20;;;3.40;;
61642;SDS011;47551;52.506;4.678;2023-07-13T00:34:47;8.68;;;2.97;;
61642;SDS011;47551;52.506;4.678;2023-07-13T00:35:08;8.93;;;2.78;;
61642;SDS011;47551;52.506;4.678;2023-07-13T00:35:30;11.93;;;3.17;;
61642;SDS011;47551;52.506;4.678;2023-07-13T00:35:50;11.15;;;3.10;;
61642;SDS011;47551;52.506;4.678;2023-07-13T00:36:10;9.80;;;3.23;;
61642;SDS011;47551;52.506;4.678;2023-07-13T00:36:31;10.52;;;3.28;;
61642;SDS011;47551;52.506;4.678;2023-07-13T00:36:51;10.13;;;2.90;;
61642;SDS011;47551;52.506;4.678;2023-07-13T00:37:11;10.27;;;2.77;;
61642;SDS011;47551;52.506;4.678;2023-07-13T00:37:31;8.97;;;2.80;;
61642;SDS011;47551;52.506;4.678;2023-07-13T00:37:52;9.30;;;2.90;;
61642;SDS011;47551;52.506;4.678;2023-07-13T00:38:12;10.18;;;3.03;;
61642;SDS011;47551;52.506;4.678;2023-07-13T00:38:33;9.23;;;2.90;;
61642;SDS011;47551;52.506;4.678;2023-07-13T00:38:53;7.40;;;2.43;;
61642;SDS011;47551;52.506;4.678;2023-07-13T00:39:13;8.37;;;2.43;;
61642;SDS011;47551;52.506;4.678;2023-07-13T00:39:34;7.60;;;2.50;;
61642;SDS011;47551;52.506;4.678;2023-07-13T00:39:54;7.93;;;2.53;;
61642;SDS011;47551;52.506;4.678;2023-07-13T00:40:15;8.30;;;2.72;;
61642;SDS011;47551;52.506;4.678;2023-07-13T00:40:35;9.02;;;2.58;;
61642;SDS011;47551;52.506;4.678;2023-07-13T00:40:56;7.60;;;2.40;;
61642;SDS011;47551;52.506;4.678;2023-07-13T00:41:16;7.53;;;2.33;;
61642;SDS011;47551;52.506;4.678;2023-07-13T00:41:36;8.02;;;2.10;;
61642;SDS011;47551;52.506;4.678;2023-07-13T00:41:59;7.10;;;2.20;;
61642;SDS011;47551;52.506;4.678;2023-07-13T00:42:20;6.00;;;2.20;;
61642;SDS011;47551;52.506;4.678;2023-07-13T00:42:41;7.00;;;2.20;;
61642;SDS011;47551;52.506;4.678;2023-07-13T00:43:01;7.38;;;2.10;;
61642;SDS011;47551;52.506;4.678;2023-07-13T00:43:22;5.13;;;1.80;;
61642;SDS011;47551;52.506;4.678;2023-07-13T00:43:45;4.30;;;1.80;;
61642;SDS011;47551;52.506;4.678;2023-07-13T00:44:08;5.95;;;1.83;;
61642;SDS011;47551;52.506;4.678;2023-07-13T00:44:31;4.57;;;1.90;;
61642;SDS011;47551;52.506;4.678;2023-07-13T00:46:35;6.38;;;1.85;;
61642;SDS011;47551;52.506;4.678;2023-07-13T00:46:56;6.43;;;1.73;;
61642;SDS011;47551;52.506;4.678;2023-07-13T00:47:18;5.70;;;1.70;;
61642;SDS011;47551;52.506;4.678;2023-07-13T00:47:38;7.33;;;1.87;;
61642;SDS011;47551;52.506;4.678;2023-07-13T00:48:01;7.28;;;1.77;;
61642;SDS011;47551;52.506;4.678;2023-07-13T00:48:30;6.90;;;2.00;;
61642;SDS011;47551;52.506;4.678;2023-07-13T00:48:50;5.97;;;1.80;;
61642;SDS011;47551;52.506;4.678;2023-07-13T00:49:12;5.78;;;2.10;;
61642;SDS011;47551;52.506;4.678;2023-07-13T00:49:33;6.07;;;2.20;;
61642;SDS011;47551;52.506;4.678;2023-07-13T00:49:55;6.50;;;1.90;;
61642;SDS011;47551;52.506;4.678;2023-07-13T00:50:19;7.05;;;1.88;;
61642;SDS011;47551;52.506;4.678;2023-07-13T00:50:39;5.88;;;1.73;;
61642;SDS011;47551;52.506;4.678;2023-07-13T00:51:00;5.22;;;1.40;;
61642;SDS011;47551;52.506;4.678;2023-07-13T00:51:23;5.63;;;1.60;;
61642;SDS011;47551;52.506;4.678;2023-07-13T00:51:52;5.55;;;1.50;;
61642;SDS011;47551;52.506;4.678;2023-07-13T00:52:13;5.40;;;1.90;;
61642;SDS011;47551;52.506;4.678;2023-07-13T00:52:36;5.40;;;1.53;;
61642;SDS011;47551;52.506;4.678;2023-07-13T00:52:57;6.07;;;1.80;;
61642;SDS011;47551;52.506;4.678;2023-07-13T00:53:18;6.50;;;1.73;;
61642;SDS011;47551;52.506;4.678;2023-07-13T00:53:39;5.90;;;1.80;;
61642;SDS011;47551;52.506;4.678;2023-07-13T00:54:00;6.97;;;1.90;;
61642;SDS011;47551;52.506;4.678;2023-07-13T00:54:24;4.93;;;1.80;;
61642;SDS011;47551;52.506;4.678;2023-07-13T00:54:45;5.85;;;1.70;;
61642;SDS011;47551;52.506;4.678;2023-07-13T00:55:06;5.63;;;1.60;;
61642;SDS011;47551;52.506;4.678;2023-07-13T00:55:27;5.68;;;1.52;;
61642;SDS011;47551;52.506;4.678;2023-07-13T00:55:48;5.97;;;1.60;;
61642;SDS011;47551;52.506;4.678;2023-07-13T00:56:09;4.72;;;1.45;;
61642;SDS011;47551;52.506;4.678;2023-07-13T00:56:29;4.73;;;1.70;;
61642;SDS011;47551;52.506;4.678;2023-07-13T00:56:51;4.22;;;1.60;;
61642;SDS011;47551;52.506;4.678;2023-07-13T00:57:15;4.68;;;1.40;;
61642;SDS011;47551;52.506;4.678;2023-07-13T00:57:36;5.40;;;1.60;;
61642;SDS011;47551;52.506;4.678;2023-07-13T00:57:57;4.85;;;1.70;;
61642;SDS011;47551;52.506;4.678;2023-07-13T00:58:20;4.22;;;1.50;;
61642;SDS011;47551;52.506;4.678;2023-07-13T00:58:47;5.15;;;1.42;;
61642;SDS011;47551;52.506;4.678;2023-07-13T00:59:08;4.67;;;1.50;;
61642;SDS011;47551;52.506;4.678;2023-07-13T00:59:33;4.47;;;1.67;;
61642;SDS011;47551;52.506;4.678;2023-07-13T00:59:55;5.18;;;1.50;;
61642;SDS011;47551;52.506;4.678;2023-07-13T01:00:17;4.65;;;1.40;;
61642;SDS011;47551;52.506;4.678;2023-07-13T01:00:39;5.20;;;1.48;;
61642;SDS011;47551;52.506;4.678;2023-07-13T01:01:00;6.38;;;1.73;;
61642;SDS011;47551;52.506;4.678;2023-07-13T01:01:20;4.53;;;1.57;;
61642;SDS011;47551;52.506;4.678;2023-07-13T01:01:41;4.00;;;1.50;;
61642;SDS011;47551;52.506;4.678;2023-07-13T01:02:04;6.37;;;1.60;;
61642;SDS011;47551;52.506;4.678;2023-07-13T01:02:24;8.02;;;1.70;;
61642;SDS011;47551;52.506;4.678;2023-07-13T01:02:45;6.85;;;1.58;;
61642;SDS011;47551;52.506;4.678;2023-07-13T01:03:06;7.70;;;1.70;;
61642;SDS011;47551;52.506;4.678;2023-07-13T01:03:32;5.35;;;1.80;;
61642;SDS011;47551;52.506;4.678;2023-07-13T01:03:54;5.20;;;1.83;;
61642;SDS011;47551;52.506;4.678;2023-07-13T01:04:14;5.17;;;1.50;;
61642;SDS011;47551;52.506;4.678;2023-07-13T01:04:34;5.00;;;1.50;;
61642;SDS011;47551;52.506;4.678;2023-07-13T01:04:55;4.25;;;1.40;;
61642;SDS011;47551;52.506;4.678;2023-07-13T01:05:16;4.23;;;1.40;;
61642;SDS011;47551;52.506;4.678;2023-07-13T01:05:37;5.63;;;1.52;;
61642;SDS011;47551;52.506;4.678;2023-07-13T01:05:58;5.13;;;1.52;;
61642;SDS011;47551;52.506;4.678;2023-07-13T01:06:18;4.30;;;1.50;;
61642;SDS011;47551;52.506;4.678;2023-07-13T01:06:39;4.23;;;1.60;;
61642;SDS011;47551;52.506;4.678;2023-07-13T01:06:59;4.35;;;1.45;;
61642;SDS011;47551;52.506;4.678;2023-07-13T01:07:20;5.43;;;1.50;;
61642;SDS011;47551;52.506;4.678;2023-07-13T01:07:40;4.60;;;1.50;;
61642;SDS011;47551;52.506;4.678;2023-07-13T01:08:02;5.60;;;1.50;;
61642;SDS011;47551;52.506;4.678;2023-07-13T01:08:23;6.38;;;1.77;;
61642;SDS011;47551;52.506;4.678;2023-07-13T01:08:44;4.73;;;1.60;;
61642;SDS011;47551;52.506;4.678;2023-07-13T01:09:04;5.50;;;1.60;;
61642;SDS011;47551;52.506;4.678;2023-07-13T01:09:25;5.33;;;1.40;;
61642;SDS011;47551;52.506;4.678;2023-07-13T01:09:49;5.70;;;1.60;;
61642;SDS011;47551;52.506;4.678;2023-07-13T01:10:09;5.88;;;1.70;;
61642;SDS011;47551;52.506;4.678;2023-07-13T01:10:30;6.00;;;1.80;;
61642;SDS011;47551;52.506;4.678;2023-07-13T01:10:58;4.57;;;1.83;;
61642;SDS011;47551;52.506;4.678;2023-07-13T01:11:20;4.80;;;1.80;;
61642;SDS011;47551;52.506;4.678;2023-07-13T01:11:41;5.60;;;1.65;;
61642;SDS011;47551;52.506;4.678;2023-07-13T01:12:02;5.17;;;1.53;;
61642;SDS011;47551;52.506;4.678;2023-07-13T01:12:23;5.45;;;1.52;;
61642;SDS011;47551;52.506;4.678;2023-07-13T01:12:43;7.70;;;1.75;;
61642;SDS011;47551;52.506;4.678;2023-07-13T01:13:03;8.33;;;1.67;;
61642;SDS011;47551;52.506;4.678;2023-07-13T01:13:24;5.57;;;1.50;;
61642;SDS011;47551;52.506;4.678;2023-07-13T01:13:44;5.20;;;1.50;;
61642;SDS011;47551;52.506;4.678;2023-07-13T01:14:05;5.47;;;1.60;;
61642;SDS011;47551;52.506;4.678;2023-07-13T01:14:25;5.93;;;1.67;;
61642;SDS011;47551;52.506;4.678;2023-07-13T01:14:45;6.97;;;1.80;;
61642;SDS011;47551;52.506;4.678;2023-07-13T01:15:33;5.97;;;1.57;;
61642;SDS011;47551;52.506;4.678;2023-07-13T01:15:47;5.07;;;1.50;;
61642;SDS011;47551;52.506;4.678;2023-07-13T01:16:13;3.35;;;1.30;;
61642;SDS011;47551;52.506;4.678;2023-07-13T01:16:37;4.68;;;1.60;;
61642;SDS011;47551;52.506;4.678;2023-07-13T01:16:59;4.82;;;1.50;;
61642;SDS011;47551;52.506;4.678;2023-07-13T01:17:20;5.70;;;1.70;;
61642;SDS011;47551;52.506;4.678;2023-07-13T01:17:40;6.27;;;1.90;;
61642;SDS011;47551;52.506;4.678;2023-07-13T01:18:00;5.22;;;1.65;;
61642;SDS011;47551;52.506;4.678;2023-07-13T01:18:24;5.20;;;1.57;;
61642;SDS011;47551;52.506;4.678;2023-07-13T01:18:45;4.90;;;1.40;;
61642;SDS011;47551;52.506;4.678;2023-07-13T01:19:30;3.90;;;1.57;;
61642;SDS011;47551;52.506;4.678;2023-07-13T01:19:49;6.43;;;1.60;;
61642;SDS011;47551;52.506;4.678;2023-07-13T01:20:10;5.83;;;1.70;;
61642;SDS011;47551;52.506;4.678;2023-07-13T01:20:30;6.85;;;1.73;;
61642;SDS011;47551;52.506;4.678;2023-07-13T01:20:52;4.85;;;1.40;;
61642;SDS011;47551;52.506;4.678;2023-07-13T01:21:13;4.75;;;1.80;;
61642;SDS011;47551;52.506;4.678;2023-07-13T01:21:33;5.77;;;1.83;;
61642;SDS011;47551;52.506;4.678;2023-07-13T01:21:53;5.73;;;1.60;;
61642;SDS011;47551;52.506;4.678;2023-07-13T01:22:15;7.20;;;1.83;;
61642;SDS011;47551;52.506;4.678;2023-07-13T01:22:35;6.28;;;1.63;;
61642;SDS011;47551;52.506;4.678;2023-07-13T01:22:55;4.80;;;1.70;;
61642;SDS011;47551;52.506;4.678;2023-07-13T01:23:16;5.90;;;1.73;;
61642;SDS011;47551;52.506;4.678;2023-07-13T01:23:36;6.23;;;1.83;;
61642;SDS011;47551;52.506;4.678;2023-07-13T01:23:59;5.70;;;1.70;;
61642;SDS011;47551;52.506;4.678;2023-07-13T01:24:19;6.35;;;1.70;;
61642;SDS011;47551;52.506;4.678;2023-07-13T01:24:41;6.35;;;1.70;;
61642;SDS011;47551;52.506;4.678;2023-07-13T01:25:02;4.55;;;1.65;;
61642;SDS011;47551;52.506;4.678;2023-07-13T01:25:23;4.10;;;1.60;;
61642;SDS011;47551;52.506;4.678;2023-07-13T01:25:44;4.57;;;1.70;;
61642;SDS011;47551;52.506;4.678;2023-07-13T01:26:04;4.73;;;1.60;;
61642;SDS011;47551;52.506;4.678;2023-07-13T01:26:24;8.00;;;2.00;;
61642;SDS011;47551;52.506;4.678;2023-07-13T01:26:44;7.10;;;2.08;;
61642;SDS011;47551;52.506;4.678;2023-07-13T01:27:05;7.10;;;1.90;;
61642;SDS011;47551;52.506;4.678;2023-07-13T01:27:26;6.97;;;2.00;;
61642;SDS011;47551;52.506;4.678;2023-07-13T01:27:46;5.00;;;1.80;;
61642;SDS011;47551;52.506;4.678;2023-07-13T01:28:07;6.53;;;1.80;;
61642;SDS011;47551;52.506;4.678;2023-07-13T01:28:31;7.82;;;1.60;;
61642;SDS011;47551;52.506;4.678;2023-07-13T01:28:54;5.80;;;1.60;;
61642;SDS011;47551;52.506;4.678;2023-07-13T01:29:16;5.05;;;1.80;;
61642;SDS011;47551;52.506;4.678;2023-07-13T01:29:37;6.50;;;1.93;;
61642;SDS011;47551;52.506;4.678;2023-07-13T01:30:02;7.45;;;1.70;;
61642;SDS011;47551;52.506;4.678;2023-07-13T01:30:24;9.23;;;2.00;;
61642;SDS011;47551;52.506;4.678;2023-07-13T01:30:45;6.13;;;1.70;;
61642;SDS011;47551;52.506;4.678;2023-07-13T01:31:08;4.63;;;1.50;;
61642;SDS011;47551;52.506;4.678;2023-07-13T01:31:29;6.68;;;1.92;;
61642;SDS011;47551;52.506;4.678;2023-07-13T01:31:49;8.63;;;2.20;;
61642;SDS011;47551;52.506;4.678;2023-07-13T01:32:17;7.22;;;1.88;;
61642;SDS011;47551;52.506;4.678;2023-07-13T01:32:42;5.43;;;1.70;;
61642;SDS011;47551;52.506;4.678;2023-07-13T01:33:06;7.10;;;1.80;;
61642;SDS011;47551;52.506;4.678;2023-07-13T01:33:27;6.72;;;1.73;;
61642;SDS011;47551;52.506;4.678;2023-07-13T01:33:47;8.47;;;1.90;;
61642;SDS011;47551;52.506;4.678;2023-07-13T01:34:08;10.10;;;2.15;;
61642;SDS011;47551;52.506;4.678;2023-07-13T01:34:31;9.18;;;1.88;;
61642;SDS011;47551;52.506;4.678;2023-07-13T01:34:54;6.05;;;1.70;;
61642;SDS011;47551;52.506;4.678;2023-07-13T01:35:14;7.75;;;1.88;;
61642;SDS011;47551;52.506;4.678;2023-07-13T01:35:36;6.47;;;1.83;;
61642;SDS011;47551;52.506;4.678;2023-07-13T01:35:56;6.72;;;2.03;;
61642;SDS011;47551;52.506;4.678;2023-07-13T01:36:20;9.15;;;2.15;;
61642;SDS011;47551;52.506;4.678;2023-07-13T01:36:41;7.90;;;1.83;;
61642;SDS011;47551;52.506;4.678;2023-07-13T01:37:01;7.73;;;1.70;;
61642;SDS011;47551;52.506;4.678;2023-07-13T01:37:22;8.65;;;1.80;;
61642;SDS011;47551;52.506;4.678;2023-07-13T01:37:42;9.30;;;2.08;;
61642;SDS011;47551;52.506;4.678;2023-07-13T01:38:05;8.20;;;2.20;;
61642;SDS011;47551;52.506;4.678;2023-07-13T01:38:25;8.82;;;2.42;;
61642;SDS011;47551;52.506;4.678;2023-07-13T01:38:46;7.23;;;1.93;;
61642;SDS011;47551;52.506;4.678;2023-07-13T01:39:06;7.57;;;1.83;;
61642;SDS011;47551;52.506;4.678;2023-07-13T01:39:26;8.33;;;2.20;;
61642;SDS011;47551;52.506;4.678;2023-07-13T01:39:47;6.83;;;2.00;;
61642;SDS011;47551;52.506;4.678;2023-07-13T01:40:07;7.22;;;1.92;;
61642;SDS011;47551;52.506;4.678;2023-07-13T01:40:29;7.63;;;2.10;;
61642;SDS011;47551;52.506;4.678;2023-07-13T01:40:50;7.30;;;1.92;;
61642;SDS011;47551;52.506;4.678;2023-07-13T01:41:11;8.55;;;2.22;;
61642;SDS011;47551;52.506;4.678;2023-07-13T01:41:32;8.73;;;2.33;;
61642;SDS011;47551;52.506;4.678;2023-07-13T01:41:52;8.33;;;2.07;;
61642;SDS011;47551;52.506;4.678;2023-07-13T01:42:13;9.40;;;2.27;;
61642;SDS011;47551;52.506;4.678;2023-07-13T01:42:34;7.05;;;2.00;;
61642;SDS011;47551;52.506;4.678;2023-07-13T01:42:54;6.90;;;2.03;;
61642;SDS011;47551;52.506;4.678;2023-07-13T01:43:14;7.30;;;2.10;;
61642;SDS011;47551;52.506;4.678;2023-07-13T01:43:35;6.65;;;1.92;;
61642;SDS011;47551;52.506;4.678;2023-07-13T01:43:55;7.03;;;1.80;;
61642;SDS011;47551;52.506;4.678;2023-07-13T01:44:15;6.63;;;2.03;;
61642;SDS011;47551;52.506;4.678;2023-07-13T01:44:35;6.05;;;2.20;;
61642;SDS011;47551;52.506;4.678;2023-07-13T01:44:56;6.90;;;2.00;;
61642;SDS011;47551;52.506;4.678;2023-07-13T01:45:16;6.33;;;2.13;;
61642;SDS011;47551;52.506;4.678;2023-07-13T01:45:36;6.80;;;2.13;;
61642;SDS011;47551;52.506;4.678;2023-07-13T01:45:57;7.28;;;2.00;;
61642;SDS011;47551;52.506;4.678;2023-07-13T01:46:17;6.57;;;1.97;;
61642;SDS011;47551;52.506;4.678;2023-07-13T01:46:37;5.72;;;1.98;;
61642;SDS011;47551;52.506;4.678;2023-07-13T01:46:58;6.97;;;2.17;;
61642;SDS011;47551;52.506;4.678;2023-07-13T01:47:24;6.60;;;1.92;;
61642;SDS011;47551;52.506;4.678;2023-07-13T01:47:46;6.13;;;2.10;;
61642;SDS011;47551;52.506;4.678;2023-07-13T01:48:06;6.63;;;2.03;;
61642;SDS011;47551;52.506;4.678;2023-07-13T01:48:26;6.40;;;2.20;;
61642;SDS011;47551;52.506;4.678;2023-07-13T01:48:47;5.20;;;2.00;;
61642;SDS011;47551;52.506;4.678;2023-07-13T01:49:07;7.07;;;2.20;;
61642;SDS011;47551;52.506;4.678;2023-07-13T01:49:27;6.30;;;2.07;;
61642;SDS011;47551;52.506;4.678;2023-07-13T01:49:47;7.40;;;2.10;;
61642;SDS011;47551;52.506;4.678;2023-07-13T01:50:08;8.53;;;2.37;;
61642;SDS011;47551;52.506;4.678;2023-07-13T01:50:28;8.90;;;2.15;;
61642;SDS011;47551;52.506;4.678;2023-07-13T01:50:48;7.37;;;2.00;;
61642;SDS011;47551;52.506;4.678;2023-07-13T01:51:11;6.95;;;2.00;;
61642;SDS011;47551;52.506;4.678;2023-07-13T01:51:33;6.82;;;1.98;;
61642;SDS011;47551;52.506;4.678;2023-07-13T01:51:53;8.20;;;2.00;;
61642;SDS011;47551;52.506;4.678;2023-07-13T01:52:13;6.20;;;1.93;;
61642;SDS011;47551;52.506;4.678;2023-07-13T01:52:34;6.20;;;2.00;;
61642;SDS011;47551;52.506;4.678;2023-07-13T01:52:54;6.37;;;2.00;;
61642;SDS011;47551;52.506;4.678;2023-07-13T01:53:14;6.13;;;1.93;;
61642;SDS011;47551;52.506;4.678;2023-07-13T01:53:34;7.95;;;2.20;;
61642;SDS011;47551;52.506;4.678;2023-07-13T01:53:55;6.97;;;2.20;;
61642;SDS011;47551;52.506;4.678;2023-07-13T01:54:15;6.83;;;2.10;;
61642;SDS011;47551;52.506;4.678;2023-07-13T01:54:35;7.33;;;2.20;;
61642;SDS011;47551;52.506;4.678;2023-07-13T01:54:55;6.97;;;2.00;;
61642;SDS011;47551;52.506;4.678;2023-07-13T01:55:16;6.10;;;2.10;;
61642;SDS011;47551;52.506;4.678;2023-07-13T01:55:38;5.90;;;2.05;;
61642;SDS011;47551;52.506;4.678;2023-07-13T01:55:59;5.87;;;1.97;;
61642;SDS011;47551;52.506;4.678;2023-07-13T01:56:39;6.88;;;2.10;;
61642;SDS011;47551;52.506;4.678;2023-07-13T01:57:01;6.97;;;2.15;;
61642;SDS011;47551;52.506;4.678;2023-07-13T01:57:23;5.55;;;2.00;;
61642;SDS011;47551;52.506;4.678;2023-07-13T01:57:43;6.70;;;2.00;;
61642;SDS011;47551;52.506;4.678;2023-07-13T01:58:03;6.70;;;1.98;;
61642;SDS011;47551;52.506;4.678;2023-07-13T01:58:26;7.73;;;2.10;;
61642;SDS011;47551;52.506;4.678;2023-07-13T01:58:49;6.10;;;1.98;;
61642;SDS011;47551;52.506;4.678;2023-07-13T01:59:10;5.63;;;1.88;;
61642;SDS011;47551;52.506;4.678;2023-07-13T01:59:33;6.47;;;2.08;;
61642;SDS011;47551;52.506;4.678;2023-07-13T01:59:53;6.95;;;2.30;;
61642;SDS011;47551;52.506;4.678;2023-07-13T02:00:13;5.87;;;1.90;;
61642;SDS011;47551;52.506;4.678;2023-07-13T02:00:34;6.85;;;1.95;;
61642;SDS011;47551;52.506;4.678;2023-07-13T02:00:56;6.57;;;2.10;;
61642;SDS011;47551;52.506;4.678;2023-07-13T02:01:17;7.78;;;2.38;;
61642;SDS011;47551;52.506;4.678;2023-07-13T02:01:37;7.85;;;2.15;;
61642;SDS011;47551;52.506;4.678;2023-07-13T02:01:57;7.90;;;2.07;;
61642;SDS011;47551;52.506;4.678;2023-07-13T02:02:20;9.20;;;2.13;;
61642;SDS011;47551;52.506;4.678;2023-07-13T02:02:40;6.05;;;2.08;;
61642;SDS011;47551;52.506;4.678;2023-07-13T02:03:00;7.47;;;2.27;;
61642;SDS011;47551;52.506;4.678;2023-07-13T02:03:20;6.83;;;2.10;;
61642;SDS011;47551;52.506;4.678;2023-07-13T02:03:41;7.65;;;2.22;;
61642;SDS011;47551;52.506;4.678;2023-07-13T02:04:02;8.63;;;2.47;;
61642;SDS011;47551;52.506;4.678;2023-07-13T02:04:22;9.95;;;2.50;;
61642;SDS011;47551;52.506;4.678;2023-07-13T02:04:42;8.73;;;2.40;;
61642;SDS011;47551;52.506;4.678;2023-07-13T02:05:03;8.05;;;2.20;;
61642;SDS011;47551;52.506;4.678;2023-07-13T02:05:23;7.67;;;2.30;;
61642;SDS011;47551;52.506;4.678;2023-07-13T02:05:44;7.93;;;2.30;;
61642;SDS011;47551;52.506;4.678;2023-07-13T02:06:04;6.70;;;2.10;;
61642;SDS011;47551;52.506;4.678;2023-07-13T02:06:24;6.47;;;2.28;;
61642;SDS011;47551;52.506;4.678;2023-07-13T02:06:44;7.57;;;2.30;;
61642;SDS011;47551;52.506;4.678;2023-07-13T02:07:08;7.22;;;2.20;;
61642;SDS011;47551;52.506;4.678;2023-07-13T02:07:28;7.75;;;2.20;;
61642;SDS011;47551;52.506;4.678;2023-07-13T02:07:49;7.77;;;2.37;;
61642;SDS011;47551;52.506;4.678;2023-07-13T02:08:09;8.05;;;2.38;;
61642;SDS011;47551;52.506;4.678;2023-07-13T02:08:30;9.53;;;2.17;;
61642;SDS011;47551;52.506;4.678;2023-07-13T02:08:50;9.07;;;2.22;;
61642;SDS011;47551;52.506;4.678;2023-07-13T02:09:11;8.60;;;2.50;;
61642;SDS011;47551;52.506;4.678;2023-07-13T02:09:31;6.90;;;2.50;;
61642;SDS011;47551;52.506;4.678;2023-07-13T02:09:51;7.17;;;2.30;;
61642;SDS011;47551;52.506;4.678;2023-07-13T02:10:15;9.30;;;2.22;;
61642;SDS011;47551;52.506;4.678;2023-07-13T02:10:36;7.45;;;2.33;;